Time;durP1;ratioP1;P1;durP2;ratioP2;P2;SDS_P1;SDS_P2;PMS_P1;PMS_P2;Temp;Humidity;BMP_temperature;BMP_pressure;BME280_temperature;BME280_humidity;BME280_pressure;Samples;Min_cycle;Max_cycle;Signal;HPM_P1;HPM_P2
2023/01/28 00:00:45;;;;;;;5.00;3.17;;;;;;;2.53;83.76;100102.59;6325279;22;20400;-86
2023/01/28 00:03:14;;;;;;;7.05;3.17;;;;;;;2.57;83.00;100089.09;6351778;22;20155;-85
2023/01/28 00:05:41;;;;;;;5.07;3.05;;;;;;;2.47;82.76;100081.03;6346301;22;20010;-85
2023/01/28 00:08:09;;;;;;;6.05;3.22;;;;;;;2.61;82.95;100111.75;6316986;22;20006;-87
2023/01/28 00:10:38;;;;;;;4.65;3.00;;;;;;;2.54;83.63;100098.97;6289958;22;20007;-83
2023/01/28 00:13:06;;;;;;;4.30;2.58;;;;;;;2.47;83.75;100094.28;6279821;22;20015;-84
2023/01/28 00:15:32;;;;;;;4.60;2.78;;;;;;;2.66;83.76;100113.06;6305384;22;20056;-83
2023/01/28 00:18:00;;;;;;;4.50;2.53;;;;;;;2.79;83.55;100134.16;6304964;22;20043;-84
2023/01/28 00:20:25;;;;;;;4.22;2.40;;;;;;;2.70;83.59;100122.47;6323568;22;20404;-83
2023/01/28 00:22:52;;;;;;;4.33;2.20;;;;;;;2.72;83.28;100120.53;6281479;22;20002;-83
2023/01/28 00:25:18;;;;;;;4.88;2.00;;;;;;;2.67;83.36;100125.38;6312502;22;20413;-82
2023/01/28 00:27:46;;;;;;;3.22;1.73;;;;;;;2.80;83.07;100129.69;6310144;22;20022;-82
2023/01/28 00:30:14;;;;;;;3.42;1.80;;;;;;;2.63;82.77;100094.75;6287458;22;20030;-83
2023/01/28 00:32:40;;;;;;;2.90;1.55;;;;;;;2.63;82.94;100105.34;6323694;22;19995;-83
2023/01/28 00:35:10;;;;;;;4.15;1.65;;;;;;;2.62;83.69;100116.94;6291309;22;20018;-83
2023/01/28 00:37:37;;;;;;;4.13;1.75;;;;;;;2.45;83.84;100090.91;6322496;22;20007;-84
2023/01/28 00:40:08;;;;;;;2.70;1.42;;;;;;;2.65;83.73;100122.00;6325922;22;20007;-84
2023/01/28 00:42:36;;;;;;;5.05;1.90;;;;;;;2.67;83.69;100109.47;6297014;22;20002;-82
2023/01/28 00:45:03;;;;;;;3.35;1.70;;;;;;;2.62;84.08;100111.66;6357298;22;20520;-83
2023/01/28 00:47:30;;;;;;;3.53;1.90;;;;;;;2.54;84.03;100098.97;6360647;22;19999;-84
2023/01/28 00:49:57;;;;;;;3.15;1.30;;;;;;;2.74;84.53;100120.44;6318265;22;20083;-84
2023/01/28 00:52:27;;;;;;;3.33;1.83;;;;;;;2.67;84.51;100132.47;6287461;22;20066;-84
2023/01/28 00:54:54;;;;;;;2.95;1.70;;;;;;;2.49;84.94;100117.06;6339851;22;20017;-85
2023/01/28 00:57:22;;;;;;;2.92;1.75;;;;;;;2.60;85.24;100142.78;6312873;22;19999;-84
2023/01/28 00:59:52;;;;;;;3.30;1.88;;;;;;;2.56;84.89;100138.66;6289433;22;20074;-84
2023/01/28 01:02:19;;;;;;;2.97;1.70;;;;;;;2.42;85.13;100112.38;6315326;22;20270;-83
2023/01/28 01:04:57;;;;;;;4.18;1.90;;;;;;;2.26;85.51;100105.63;6289358;22;20443;-85
2023/01/28 01:07:40;;;;;;;3.03;1.55;;;;;;;2.55;85.67;100158.19;6314722;22;20033;-84
2023/01/28 01:10:09;;;;;;;3.65;1.80;;;;;;;2.51;85.77;100162.06;6338620;22;20041;-86
2023/01/28 01:12:36;;;;;;;3.45;1.92;;;;;;;2.56;85.58;100148.44;6311213;22;20436;-86
2023/01/28 01:15:07;;;;;;;3.95;1.85;;;;;;;2.50;85.51;100158.56;6281742;22;20026;-84
2023/01/28 01:17:39;;;;;;;3.50;1.92;;;;;;;2.11;85.58;100122.78;6311296;22;20095;-85
2023/01/28 01:20:12;;;;;;;4.03;2.13;;;;;;;2.17;85.52;100130.22;6314009;22;20328;-84
2023/01/28 01:22:38;;;;;;;3.20;1.75;;;;;;;2.32;85.66;100144.94;6284114;22;20010;-85
2023/01/28 01:25:05;;;;;;;5.85;2.25;;;;;;;2.23;85.52;100136.88;6284116;22;20090;-85
2023/01/28 01:27:31;;;;;;;4.40;2.13;;;;;;;2.21;85.70;100144.94;6260026;22;20215;-84
2023/01/28 01:29:57;;;;;;;4.45;2.45;;;;;;;2.10;85.83;100129.00;6310225;22;19999;-84
2023/01/28 01:32:24;;;;;;;5.13;2.33;;;;;;;2.12;85.73;100137.69;6309749;22;20003;-83
2023/01/28 01:34:49;;;;;;;4.97;2.50;;;;;;;2.32;85.98;100168.00;6310585;22;20052;-84
2023/01/28 01:37:37;;;;;;;4.07;2.25;;;;;;;2.41;85.65;100177.88;6284371;22;20002;-83
2023/01/28 01:40:04;;;;;;;4.68;2.50;;;;;;;2.18;85.59;100157.59;6351737;22;20184;-83
2023/01/28 01:42:31;;;;;;;4.55;2.50;;;;;;;2.29;85.25;100182.34;6260254;22;20071;-84
2023/01/28 01:45:05;;;;;;;6.20;2.63;;;;;;;2.29;84.97;100173.50;6302166;22;20011;-84
2023/01/28 01:47:47;;;;;;;4.18;2.53;;;;;;;2.01;85.03;100161.53;6309498;22;20010;-84
2023/01/28 01:50:29;;;;;;;6.35;2.70;;;;;;;2.19;85.29;100205.22;6310429;22;20014;-83
2023/01/28 01:53:16;;;;;;;6.30;3.40;;;;;;;1.96;84.92;100175.16;6336656;22;20011;-84
2023/01/28 01:55:45;;;;;;;6.68;2.97;;;;;;;2.06;84.85;100205.34;6336091;22;20036;-83
2023/01/28 01:58:14;;;;;;;4.85;2.65;;;;;;;2.25;84.62;100207.41;6314236;22;20415;-84
2023/01/28 02:00:42;;;;;;;4.53;2.35;;;;;;;2.06;84.14;100196.50;6284102;22;20011;-84
2023/01/28 02:03:10;;;;;;;6.20;3.00;;;;;;;2.03;84.38;100179.03;6310083;22;20018;-84
2023/01/28 02:05:37;;;;;;;4.80;2.60;;;;;;;2.10;84.23;100192.66;6285880;22;20003;-83
2023/01/28 02:08:21;;;;;;;5.95;2.95;;;;;;;1.98;84.41;100183.00;6340224;22;20386;-84
2023/01/28 02:11:01;;;;;;;4.22;2.45;;;;;;;2.06;84.09;100217.72;6288783;22;20006;-84
2023/01/28 02:41:10;;;;;;;4.30;2.08;;;;;;;1.50;82.78;100244.03;6371265;22;20029;-83
2023/01/28 02:43:50;;;;;;;5.63;1.85;;;;;;;1.50;82.65;100260.78;6351638;22;20480;-84
2023/01/28 02:49:17;;;;;;;4.53;2.08;;;;;;;1.44;82.90;100254.13;6247073;23;20000;-85
2023/01/28 02:51:53;;;;;;;3.97;1.90;;;;;;;1.52;83.13;100279.19;6364187;22;20089;-83
2023/01/28 02:54:37;;;;;;;4.75;2.25;;;;;;;1.52;82.86;100263.31;6344678;22;20025;-83
2023/01/28 02:57:38;;;;;;;5.15;2.30;;;;;;;1.40;82.49;100260.59;6365873;22;20010;-84
2023/01/28 03:00:07;;;;;;;5.65;2.35;;;;;;;1.39;82.89;100284.56;6343986;22;20002;-82
2023/01/28 03:02:41;;;;;;;4.75;2.40;;;;;;;1.30;83.40;100279.94;6340315;22;20347;-82
2023/01/28 03:05:21;;;;;;;4.28;2.15;;;;;;;1.28;83.19;100277.38;6315294;22;20011;-83
2023/01/28 03:07:50;;;;;;;5.00;2.28;;;;;;;0.94;83.64;100255.97;6367697;22;20139;-85
2023/01/28 03:10:19;;;;;;;5.18;2.55;;;;;;;0.86;83.21;100245.06;6316578;22;20110;-82
2023/01/28 03:38:32;;;;;;;6.35;3.03;;;;;;;0.80;82.81;100293.16;6322856;22;20020;-84
2023/01/28 03:41:02;;;;;;;5.50;2.83;;;;;;;0.72;83.11;100269.03;6318482;22;20128;-84
2023/01/28 03:43:28;;;;;;;6.55;2.90;;;;;;;0.60;82.15;100279.50;6340390;22;20021;-85
2023/01/28 03:45:55;;;;;;;6.30;2.70;;;;;;;0.58;82.66;100288.50;6341157;22;19999;-85
2023/01/28 03:48:24;;;;;;;7.00;3.10;;;;;;;0.47;81.93;100280.44;6315894;22;20036;-85
2023/01/28 03:50:53;;;;;;;6.97;3.00;;;;;;;0.60;82.37;100303.31;6319369;22;20002;-85
2023/01/28 03:53:19;;;;;;;5.43;2.97;;;;;;;0.60;82.81;100316.53;6344627;22;20002;-83
2023/01/28 03:55:46;;;;;;;6.53;2.80;;;;;;;0.63;81.94;100310.19;6340218;22;19995;-84
2023/01/28 03:58:14;;;;;;;6.35;3.08;;;;;;;0.57;82.14;100297.41;6316856;22;20091;-85
2023/01/28 04:00:42;;;;;;;6.22;2.72;;;;;;;0.58;82.23;100302.56;6341527;22;20002;-84
2023/01/28 04:03:16;;;;;;;6.32;3.15;;;;;;;0.53;82.73;100317.91;6318490;22;20081;-84
2023/01/28 04:05:57;;;;;;;7.03;3.38;;;;;;;0.68;81.71;100316.03;6380070;22;20010;-87
2023/01/28 04:08:26;;;;;;;6.93;2.90;;;;;;;0.51;81.03;100322.47;6346347;22;20449;-83
2023/01/28 04:10:51;;;;;;;5.60;2.80;;;;;;;0.54;81.01;100318.75;6341670;22;20089;-83
2023/01/28 04:13:17;;;;;;;5.50;2.87;;;;;;;0.23;81.44;100298.84;6315255;22;19995;-83
2023/01/28 04:15:54;;;;;;;6.22;2.95;;;;;;;0.35;81.27;100292.72;6316248;22;20013;-84
2023/01/28 04:18:26;;;;;;;6.25;3.13;;;;;;;0.16;81.40;100298.41;6351648;22;19998;-82
2023/01/28 04:20:56;;;;;;;6.97;3.53;;;;;;;0.33;81.33;100305.22;6381647;22;20089;-84
2023/01/28 04:23:25;;;;;;;5.13;2.92;;;;;;;0.44;81.57;100309.78;6318635;22;20006;-84
2023/01/28 04:25:52;;;;;;;6.87;3.23;;;;;;;0.37;81.24;100304.03;6319966;22;20052;-83
2023/01/28 04:28:22;;;;;;;6.97;3.03;;;;;;;0.38;81.34;100318.97;6345608;22;20239;-85
2023/01/28 04:30:52;;;;;;;6.93;3.28;;;;;;;0.33;81.03;100321.09;6307319;22;20449;-84
2023/01/28 04:33:22;;;;;;;6.53;3.33;;;;;;;0.37;81.78;100333.13;6349989;22;20004;-85
2023/01/28 04:35:48;;;;;;;7.10;3.30;;;;;;;0.31;81.33;100309.78;6319558;22;20066;-84
2023/01/28 04:38:14;;;;;;;5.88;3.20;;;;;;;0.43;80.57;100332.72;6343689;22;19995;-83
2023/01/28 04:52:42;;;;;;;5.43;3.20;;;;;;;0.34;81.02;100336.00;6370651;22;20095;-83
2023/01/28 04:55:08;;;;;;;5.20;2.88;;;;;;;0.27;80.76;100318.84;6346004;22;20049;-85
2023/01/28 04:57:33;;;;;;;6.25;3.40;;;;;;;0.32;80.79;100325.50;6344444;22;20010;-84
2023/01/28 04:59:59;;;;;;;6.93;3.47;;;;;;;0.30;80.61;100316.00;6316368;22;20095;-85
2023/01/28 05:02:27;;;;;;;4.80;2.83;;;;;;;0.23;80.63;100306.78;6343611;22;19994;-84
2023/01/28 05:04:54;;;;;;;5.57;3.05;;;;;;;0.22;80.37;100313.03;6343172;22;20014;-83
2023/01/28 05:07:20;;;;;;;6.78;3.30;;;;;;;0.22;80.01;100302.47;6342690;22;20075;-83
2023/01/28 05:09:50;;;;;;;6.75;3.30;;;;;;;0.18;79.70;100321.16;6341459;22;20002;-85
2023/01/28 05:12:20;;;;;;;6.50;3.10;;;;;;;0.34;79.96;100342.13;6372415;22;20390;-84
2023/01/28 05:14:45;;;;;;;5.68;3.25;;;;;;;0.32;79.63;100341.38;6325346;22;20050;-84
2023/01/28 05:17:35;;;;;;;5.77;3.10;;;;;;;0.38;79.68;100358.66;6380661;22;20025;-84
2023/01/28 05:20:05;;;;;;;6.57;3.28;;;;;;;0.48;79.02;100361.53;6359507;22;20315;-84
2023/01/28 05:22:32;;;;;;;6.03;3.08;;;;;;;0.33;79.29;100358.13;6351457;22;20006;-83
2023/01/28 05:25:02;;;;;;;5.93;3.30;;;;;;;0.39;79.17;100362.97;6350127;22;20037;-83
2023/01/28 05:27:31;;;;;;;8.00;3.42;;;;;;;0.32;79.63;100345.81;6329570;22;20415;-86
2023/01/28 05:29:58;;;;;;;7.25;3.17;;;;;;;0.30;78.80;100347.72;6322876;22;20018;-86
2023/01/28 05:32:24;;;;;;;5.82;3.53;;;;;;;0.08;78.97;100338.59;6353117;22;20438;-83
2023/01/28 05:34:50;;;;;;;6.22;3.20;;;;;;;0.15;79.32;100349.59;6354729;22;20164;-85
2023/01/28 05:37:18;;;;;;;6.05;3.08;;;;;;;0.17;79.66;100364.41;6374970;22;20074;-85
2023/01/28 05:39:53;;;;;;;5.20;2.92;;;;;;;0.30;79.31;100385.59;6341016;22;20010;-85
2023/01/28 05:42:21;;;;;;;5.50;3.20;;;;;;;0.07;79.70;100347.47;6346798;22;20002;-85
2023/01/28 05:44:47;;;;;;;5.43;3.17;;;;;;;-0.05;79.73;100358.84;6345555;22;19998;-86
2023/01/28 05:47:23;;;;;;;5.75;3.28;;;;;;;-0.08;80.05;100337.91;6318624;22;20002;-84
2023/01/28 05:49:50;;;;;;;;;;;;;;;0.19;79.42;100401.34;6367214;22;20002;-84
2023/01/28 05:52:17;;;;;;;5.80;3.20;;;;;;;0.13;79.46;100373.50;6337761;22;20251;-82
2023/01/28 05:54:43;;;;;;;6.00;3.30;;;;;;;0.03;79.78;100369.78;6287729;22;20093;-84
2023/01/28 05:57:09;;;;;;;;;;;;;;;0.17;79.68;100401.44;6315291;22;19998;-83
2023/01/28 05:59:37;;;;;;;6.88;3.17;;;;;;;-0.01;79.87;100378.84;6370085;22;20324;-84
2023/01/28 06:02:03;;;;;;;5.85;3.25;;;;;;;-0.07;79.74;100381.88;6308518;22;20006;-85
2023/01/28 06:04:49;;;;;;;5.53;3.33;;;;;;;0.09;80.03;100403.72;6369457;22;20013;-84
2023/01/28 06:07:23;;;;;;;7.43;3.60;;;;;;;-0.03;79.62;100378.09;6345897;22;20143;-86
2023/01/28 06:09:50;;;;;;;6.07;3.47;;;;;;;0.12;79.53;100414.09;6358593;22;20070;-85
2023/01/28 06:12:18;;;;;;;6.32;3.40;;;;;;;0.20;79.36;100422.38;6324979;22;20315;-84
2023/01/28 06:15:04;;;;;;;6.25;3.58;;;;;;;0.15;79.20;100424.47;6362458;22;20067;-83
2023/01/28 06:17:30;;;;;;;;;;;;;;;0.19;79.23;100412.75;6343568;22;20034;-82
2023/01/28 06:19:55;;;;;;;;;;;;;;;0.23;79.09;100447.75;6372045;22;19902;-83
2023/01/28 06:22:21;;;;;;;7.77;3.33;;;;;;;0.23;79.01;100436.34;6379333;22;19897;-85
2023/01/28 06:24:51;;;;;;;5.88;3.80;;;;;;;0.02;78.96;100397.13;6374679;22;20074;-82
2023/01/28 06:27:19;;;;;;;7.13;4.10;;;;;;;0.05;78.90;100418.09;6291319;22;20017;-83
2023/01/28 06:29:47;;;;;;;5.75;3.63;;;;;;;0.25;78.45;100411.50;6291985;22;20013;-84
2023/01/28 06:32:16;;;;;;;6.70;3.65;;;;;;;0.17;78.74;100408.53;6377897;22;20016;-83
2023/01/28 06:34:42;;;;;;;9.35;3.97;;;;;;;0.26;78.53;100399.09;6345093;22;20449;-83
2023/01/28 06:37:08;;;;;;;8.45;4.45;;;;;;;0.17;79.08;100409.34;6340682;22;20006;-86
2023/01/28 06:39:33;;;;;;;8.07;4.23;;;;;;;0.26;78.32;100418.50;6314585;22;20064;-84
2023/01/28 06:42:02;;;;;;;7.28;4.30;;;;;;;0.19;78.40;100420.69;6314420;22;20232;-84
2023/01/28 06:44:27;;;;;;;6.45;3.75;;;;;;;0.34;78.34;100433.84;6340380;22;20082;-85
2023/01/28 06:46:53;;;;;;;8.52;4.22;;;;;;;0.36;78.56;100442.53;6340347;22;20028;-85
2023/01/28 06:49:23;;;;;;;10.77;4.57;;;;;;;0.37;78.38;100446.84;6342307;22;20082;-83
2023/01/28 06:51:48;;;;;;;10.98;4.32;;;;;;;0.43;78.08;100451.75;6288519;22;20007;-84
2023/01/28 06:54:14;;;;;;;11.25;4.10;;;;;;;0.39;77.84;100453.75;6340778;22;20010;-85
2023/01/28 06:56:43;;;;;;;8.07;4.50;;;;;;;0.54;77.54;100461.63;6343046;22;20005;-84
2023/01/28 06:59:10;;;;;;;8.10;4.78;;;;;;;0.31;78.27;100436.69;6368158;22;20002;-83
2023/01/28 07:01:37;;;;;;;8.88;4.88;;;;;;;0.49;77.85;100448.72;6314542;22;20453;-85
2023/01/28 07:04:08;;;;;;;7.97;4.53;;;;;;;0.42;78.34;100447.41;6315153;22;20067;-85
2023/01/28 07:06:33;;;;;;;7.93;4.38;;;;;;;0.73;78.09;100477.13;6367826;22;19994;-84
2023/01/28 07:08:59;;;;;;;8.30;4.47;;;;;;;0.60;77.89;100462.06;6341374;22;20323;-84
2023/01/28 07:11:25;;;;;;;9.47;4.93;;;;;;;0.39;79.21;100456.38;6288115;22;20086;-83
2023/01/28 07:13:51;;;;;;;8.35;4.80;;;;;;;0.48;79.08;100486.69;6340294;22;20282;-84
2023/01/28 07:16:18;;;;;;;9.95;4.90;;;;;;;0.40;79.03;100475.78;6366187;22;20006;-85
2023/01/28 07:18:44;;;;;;;11.43;5.47;;;;;;;0.63;79.65;100477.75;6349985;22;20026;-83
2023/01/28 07:21:10;;;;;;;11.63;5.50;;;;;;;0.76;79.01;100491.00;6344054;22;20078;-85
2023/01/28 07:23:38;;;;;;;9.13;4.57;;;;;;;0.69;77.49;100502.09;6379304;22;20069;-87
2023/01/28 07:26:05;;;;;;;9.25;5.20;;;;;;;0.81;77.38;100485.41;6356085;22;20017;-85
2023/01/28 07:28:33;;;;;;;9.73;5.63;;;;;;;1.12;77.06;100504.50;6316051;22;20006;-85
2023/01/28 07:31:09;;;;;;;11.30;6.18;;;;;;;1.10;76.54;100522.28;6321975;22;20002;-88
2023/01/28 07:33:37;;;;;;;12.93;6.50;;;;;;;1.03;77.14;100501.53;6350966;22;20018;-87
2023/01/28 07:36:04;;;;;;;11.73;6.38;;;;;;;1.24;76.18;100493.06;6375109;22;20006;-88
2023/01/28 07:38:31;;;;;;;12.05;6.47;;;;;;;1.52;75.87;100510.56;6329471;22;20005;-88
2023/01/28 07:40:57;;;;;;;12.18;6.80;;;;;;;1.56;74.30;100513.84;6351207;22;20010;-86
2023/01/28 07:43:24;;;;;;;;;;;;;;;1.60;74.93;100520.66;6326646;22;20006;-86
2023/01/28 07:45:50;;;;;;;14.48;8.05;;;;;;;1.51;74.36;100485.03;6357653;22;19913;-84
2023/01/28 07:48:18;;;;;;;16.33;9.13;;;;;;;1.73;74.26;100507.38;6324714;22;20006;-85
2023/01/28 07:50:48;;;;;;;14.00;7.00;;;;;;;1.95;72.94;100517.31;6376369;22;20064;-85
2023/01/28 07:53:16;;;;;;;12.10;6.15;;;;;;;1.90;72.34;100485.84;6314357;22;20102;-86
2023/01/28 07:55:42;;;;;;;10.50;5.80;;;;;;;2.29;72.20;100516.59;6341226;22;20010;-84
2023/01/28 07:58:10;;;;;;;10.13;5.95;;;;;;;2.17;71.51;100500.72;6327204;22;20009;-85
2023/01/28 08:00:36;;;;;;;12.65;5.60;;;;;;;2.21;71.73;100520.75;6357197;22;20089;-84
2023/01/28 08:03:06;;;;;;;10.55;6.00;;;;;;;2.26;71.26;100522.09;6351805;22;20001;-87
2023/01/28 08:05:40;;;;;;;11.45;6.40;;;;;;;2.26;70.08;100489.44;6299375;22;20010;-87
2023/01/28 08:08:10;;;;;;;10.45;5.88;;;;;;;2.20;70.85;100497.81;6346421;22;20045;-84
2023/01/28 08:10:36;;;;;;;10.68;5.75;;;;;;;2.29;70.27;100511.28;6358022;22;20132;-85
2023/01/28 08:13:03;;;;;;;13.48;5.90;;;;;;;2.51;69.31;100512.38;6359218;22;20025;-89
2023/01/28 08:15:29;;;;;;;12.45;6.28;;;;;;;2.43;69.39;100506.78;6333037;22;20011;-86
2023/01/28 08:17:59;;;;;;;12.25;6.43;;;;;;;2.46;69.05;100525.97;6351578;22;20063;-85
2023/01/28 08:20:30;;;;;;;15.27;7.25;;;;;;;2.42;68.37;100519.19;6330458;22;20068;-88
2023/01/28 08:23:20;;;;;;;14.98;8.18;;;;;;;2.27;69.41;100537.09;6351419;22;20079;-87
2023/01/28 08:25:51;;;;;;;9.57;5.43;;;;;;;2.35;68.88;100551.59;6388562;22;20005;-89
2023/01/28 08:28:21;;;;;;;11.68;5.97;;;;;;;2.33;68.51;100533.97;6353576;22;20026;-89
2023/01/28 08:31:13;;;;;;;11.50;5.90;;;;;;;2.28;68.45;100559.16;6360032;22;20011;-88
2023/01/28 08:34:40;;;;;;;14.55;6.30;;;;;;;1.84;69.70;100542.78;6386207;22;20010;-91
2023/01/28 08:37:34;;;;;;;11.68;5.75;;;;;;;1.81;69.20;100566.00;6390119;22;20014;-88
2023/01/28 08:47:57;;;;;;;13.98;6.03;;;;;;;1.59;70.77;100590.47;6336649;22;20030;-84
2023/01/28 08:50:24;;;;;;;11.77;6.45;;;;;;;1.40;70.20;100538.75;6344654;22;20056;-85
2023/01/28 08:52:54;;;;;;;13.55;7.38;;;;;;;1.49;70.64;100555.81;6265990;22;20037;-84
2023/01/28 08:55:20;;;;;;;12.63;6.55;;;;;;;1.30;70.98;100550.09;6310588;22;20072;-85
2023/01/28 08:57:48;;;;;;;11.77;6.90;;;;;;;1.72;70.40;100582.56;6313808;22;20052;-84
2023/01/28 09:00:14;;;;;;;15.32;7.13;;;;;;;1.61;70.16;100565.56;6320136;22;20006;-83
2023/01/28 09:02:41;;;;;;;13.63;6.80;;;;;;;1.79;70.06;100579.38;6282982;22;20418;-85
2023/01/28 09:05:07;;;;;;;13.60;6.90;;;;;;;1.84;69.61;100576.41;6306986;22;20088;-86
2023/01/28 09:07:34;;;;;;;12.40;6.65;;;;;;;1.86;69.64;100574.50;6256282;22;20400;-85
2023/01/28 09:10:01;;;;;;;13.55;6.90;;;;;;;1.74;69.21;100568.25;6307807;22;20105;-84
2023/01/28 09:12:28;;;;;;;11.40;6.43;;;;;;;1.67;69.04;100561.66;6259178;22;20010;-84
2023/01/28 09:14:55;;;;;;;12.98;6.35;;;;;;;1.87;69.59;100570.88;6310408;22;20090;-82
2023/01/28 09:17:23;;;;;;;12.85;6.88;;;;;;;1.87;69.35;100582.34;6307998;22;20018;-85
2023/01/28 09:19:49;;;;;;;12.63;6.32;;;;;;;1.89;69.12;100571.63;6345464;22;20030;-88
2023/01/28 09:22:15;;;;;;;13.93;6.40;;;;;;;2.03;68.35;100575.94;6320296;22;20082;-85
2023/01/28 09:24:41;;;;;;;;;;;;;;;1.90;68.15;100597.19;6320330;22;20010;-85
2023/01/28 09:27:06;;;;;;;14.15;6.10;;;;;;;1.86;68.82;100596.53;6320637;22;19929;-83
2023/01/28 09:29:36;;;;;;;11.30;5.88;;;;;;;1.73;68.63;100600.16;6275823;22;20007;-86
2023/01/28 09:32:02;;;;;;;9.20;5.68;;;;;;;1.50;69.24;100605.22;6300468;22;20030;-82
2023/01/28 09:34:28;;;;;;;12.45;6.47;;;;;;;1.55;69.14;100613.72;6284261;22;20099;-85
2023/01/28 09:36:56;;;;;;;11.40;6.20;;;;;;;1.29;69.23;100596.94;6312063;22;20059;-84
2023/01/28 09:39:24;;;;;;;12.40;5.72;;;;;;;1.57;69.23;100600.34;6285897;22;20022;-84
2023/01/28 09:42:11;;;;;;;14.88;7.25;;;;;;;1.61;69.44;100613.28;6318105;22;20078;-86
2023/01/28 09:44:53;;;;;;;12.45;6.28;;;;;;;1.55;69.43;100615.53;6322780;22;20351;-86
2023/01/28 09:47:26;;;;;;;14.43;7.40;;;;;;;1.55;69.75;100608.41;6328775;22;20047;-85
2023/01/28 09:49:52;;;;;;;13.65;6.80;;;;;;;1.58;69.26;100596.75;6286797;22;20078;-87
2023/01/28 09:52:21;;;;;;;12.98;7.68;;;;;;;1.59;69.56;100622.28;6262461;22;20011;-85
2023/01/28 09:55:04;;;;;;;12.88;6.82;;;;;;;1.55;69.04;100581.91;6296968;22;20105;-83
2023/01/28 09:57:42;;;;;;;12.13;6.68;;;;;;;1.61;68.67;100551.47;6232277;22;20030;-86
2023/01/28 10:00:22;;;;;;;11.82;6.55;;;;;;;1.71;68.33;100583.50;6279237;22;19999;-86
2023/01/28 10:03:07;;;;;;;12.65;6.72;;;;;;;1.92;67.96;100592.63;6276074;22;20011;-84
2023/01/28 10:05:45;;;;;;;14.60;7.50;;;;;;;2.02;67.43;100590.19;6281193;22;20011;-86
2023/01/28 10:08:22;;;;;;;14.55;7.28;;;;;;;2.35;66.56;100575.47;6317051;22;20041;-84
2023/01/28 10:10:50;;;;;;;15.38;8.48;;;;;;;3.15;64.39;100565.97;6258600;22;19999;-86
2023/01/28 10:13:36;;;;;;;10.55;6.20;;;;;;;3.45;62.73;100546.03;6265284;22;20011;-85
2023/01/28 10:16:11;;;;;;;14.57;7.97;;;;;;;3.87;61.76;100556.13;6318341;22;20042;-81
2023/01/28 10:18:46;;;;;;;16.55;7.38;;;;;;;4.25;60.42;100560.22;6292500;22;20070;-81
2023/01/28 10:21:28;;;;;;;12.82;7.50;;;;;;;4.35;59.90;100562.00;6240867;22;20066;-85
2023/01/28 10:23:57;;;;;;;13.52;7.85;;;;;;;4.06;59.84;100555.50;6282457;22;20080;-85
2023/01/28 10:26:34;;;;;;;13.80;7.95;;;;;;;3.80;60.30;100530.00;6310893;22;19999;-84
2023/01/28 10:29:25;;;;;;;14.10;7.78;;;;;;;3.78;60.71;100555.00;6283181;22;19999;-85
2023/01/28 10:31:58;;;;;;;15.88;8.13;;;;;;;3.80;60.70;100539.78;6287185;22;20011;-85
2023/01/28 10:34:29;;;;;;;14.95;7.85;;;;;;;3.43;61.92;100555.09;6283114;22;20550;-86
2023/01/28 10:36:56;;;;;;;16.23;8.10;;;;;;;3.06;62.91;100552.56;6258912;22;20097;-85
2023/01/28 10:39:24;;;;;;;12.30;7.00;;;;;;;2.88;63.28;100552.09;6257574;22;20014;-84
2023/01/28 10:41:49;;;;;;;15.00;8.48;;;;;;;2.82;63.81;100574.66;6309453;22;20011;-86
2023/01/28 10:44:41;;;;;;;16.77;7.80;;;;;;;2.32;64.71;100572.09;6283011;22;20337;-84
2023/01/28 10:47:14;;;;;;;15.10;7.97;;;;;;;1.66;66.34;100541.41;6305295;22;20070;-84
2023/01/28 10:50:21;;;;;;;17.33;7.47;;;;;;;1.87;67.32;100592.06;6260282;22;20011;-85
2023/01/28 10:53:00;;;;;;;16.73;7.60;;;;;;;2.00;67.04;100595.59;6284025;22;20013;-85
2023/01/28 10:55:28;;;;;;;13.40;7.05;;;;;;;1.76;67.36;100587.53;6313260;22;19998;-84
2023/01/28 10:57:53;;;;;;;14.85;8.45;;;;;;;1.64;67.96;100597.19;6312153;22;20005;-85
2023/01/28 11:00:24;;;;;;;17.47;8.33;;;;;;;1.59;68.55;100601.09;6285272;22;20010;-86
2023/01/28 11:02:51;;;;;;;17.50;8.25;;;;;;;1.59;68.46;100582.53;6311225;22;20791;-85
2023/01/28 11:05:21;;;;;;;13.85;7.63;;;;;;;1.68;68.26;100603.09;6260154;22;19998;-85
2023/01/28 11:07:50;;;;;;;16.17;8.50;;;;;;;1.44;69.19;100603.81;6311045;22;20022;-85
2023/01/28 11:10:30;;;;;;;15.60;8.38;;;;;;;1.41;68.81;100571.41;6312425;22;20077;-84
2023/01/28 11:12:57;;;;;;;16.55;8.50;;;;;;;1.42;68.90;100581.88;6338684;22;20020;-82
2023/01/28 11:15:28;;;;;;;15.25;8.43;;;;;;;1.44;69.00;100600.34;6285381;22;20066;-85
2023/01/28 11:17:59;;;;;;;16.02;8.70;;;;;;;1.46;69.34;100601.94;6311083;22;20041;-86
2023/01/28 11:20:26;;;;;;;15.73;8.27;;;;;;;1.54;68.87;100621.75;6313664;22;19999;-84
2023/01/28 11:22:53;;;;;;;16.48;9.65;;;;;;;1.54;68.88;100611.16;6288601;22;20316;-83
2023/01/28 11:25:30;;;;;;;15.43;8.48;;;;;;;1.41;69.19;100617.28;6262157;22;20050;-85
2023/01/28 11:27:57;;;;;;;14.30;7.68;;;;;;;1.35;69.12;100596.50;6287106;22;20389;-86
2023/01/28 11:30:28;;;;;;;15.80;8.20;;;;;;;1.20;68.53;100597.53;6293248;22;19998;-84
2023/01/28 11:33:28;;;;;;;17.98;7.75;;;;;;;1.20;69.40;100608.13;6308194;22;20006;-85
2023/01/28 11:36:20;;;;;;;18.05;8.73;;;;;;;1.28;69.75;100605.81;6335004;22;20003;-84
2023/01/28 11:38:53;;;;;;;16.95;9.52;;;;;;;1.35;69.75;100607.09;6316777;22;19998;-84
2023/01/28 11:41:42;;;;;;;17.00;8.75;;;;;;;1.47;69.30;100610.72;6304007;22;20381;-86
2023/01/28 11:44:14;;;;;;;17.92;9.40;;;;;;;1.38;69.63;100606.91;6315243;22;20017;-85
2023/01/28 11:47:04;;;;;;;18.38;9.75;;;;;;;1.47;69.96;100613.38;6310586;22;20014;-83
2023/01/28 11:49:39;;;;;;;18.10;9.43;;;;;;;1.41;69.50;100617.28;6348318;22;20025;-85
2023/01/28 11:52:24;;;;;;;19.42;9.70;;;;;;;1.23;70.37;100615.88;6303023;22;20003;-84
2023/01/28 11:54:55;;;;;;;16.65;8.63;;;;;;;0.98;70.66;100591.03;6342411;22;19999;-83
2023/01/28 11:57:35;;;;;;;20.70;10.00;;;;;;;1.32;70.63;100611.75;6309716;22;20093;-85
2023/01/28 12:00:28;;;;;;;19.42;9.90;;;;;;;1.32;70.30;100622.38;6311333;22;20020;-84
2023/01/28 12:03:15;;;;;;;16.00;8.60;;;;;;;1.31;70.06;100625.94;6290675;22;20416;-86
2023/01/28 12:05:56;;;;;;;18.92;9.38;;;;;;;1.21;70.09;100625.72;6352002;22;20010;-85
2023/01/28 12:08:26;;;;;;;20.95;9.55;;;;;;;1.09;70.20;100637.13;6313248;22;20086;-84
2023/01/28 12:11:14;;;;;;;15.73;8.45;;;;;;;1.19;70.02;100648.78;6282825;22;20038;-85
2023/01/28 12:14:04;;;;;;;20.58;9.25;;;;;;;1.23;70.13;100645.00;6336449;22;20049;-83
2023/01/28 12:16:46;;;;;;;20.77;9.27;;;;;;;1.26;70.60;100640.38;6335637;22;20052;-85
2023/01/28 12:19:25;;;;;;;19.33;9.80;;;;;;;1.06;70.56;100635.53;6336555;22;20014;-84
2023/01/28 12:22:09;;;;;;;19.92;9.98;;;;;;;1.07;70.52;100649.59;6308189;22;20006;-85
2023/01/28 12:24:59;;;;;;;19.35;9.55;;;;;;;1.07;71.20;100642.50;6336878;22;19995;-84
2023/01/28 12:27:54;;;;;;;20.52;9.43;;;;;;;1.10;70.75;100638.81;6307863;22;20011;-85
2023/01/28 12:30:28;;;;;;;19.00;8.90;;;;;;;1.21;70.66;100653.03;6337320;22;20432;-85
2023/01/28 12:33:04;;;;;;;18.75;9.23;;;;;;;0.96;71.49;100651.16;6259356;22;20394;-86
2023/01/28 12:36:11;;;;;;;21.75;9.00;;;;;;;0.94;71.83;100661.00;6311122;22;20011;-84
2023/01/28 12:38:54;;;;;;;19.58;9.48;;;;;;;1.07;71.86;100652.25;6256847;22;20315;-84
2023/01/28 12:41:24;;;;;;;20.45;10.68;;;;;;;0.84;71.99;100630.75;6336226;22;19999;-84
2023/01/28 12:43:55;;;;;;;19.25;10.32;;;;;;;0.92;72.11;100652.31;6260193;22;20097;-86
2023/01/28 12:46:25;;;;;;;19.77;9.35;;;;;;;1.07;71.69;100666.34;6318235;22;20082;-86
2023/01/28 12:49:17;;;;;;;18.85;9.45;;;;;;;0.90;71.01;100634.81;6316774;22;20006;-84
2023/01/28 12:52:07;;;;;;;17.55;9.02;;;;;;;1.22;70.48;100669.81;6316195;22;20100;-83
2023/01/28 12:54:39;;;;;;;18.05;9.80;;;;;;;1.23;70.66;100671.50;6343367;22;20005;-84
2023/01/28 12:57:06;;;;;;;18.65;10.20;;;;;;;1.29;70.81;100680.81;6340178;22;20005;-85
2023/01/28 13:00:13;;;;;;;18.58;9.15;;;;;;;1.29;70.52;100687.00;6287355;22;20411;-83
2023/01/28 13:02:41;;;;;;;18.00;9.13;;;;;;;1.23;70.97;100697.97;6281411;22;20007;-84
2023/01/28 13:05:12;;;;;;;17.15;9.25;;;;;;;1.31;70.60;100684.22;6261909;22;20030;-86
2023/01/28 13:07:47;;;;;;;17.52;9.38;;;;;;;1.23;70.50;100708.56;6339372;22;20122;-86
2023/01/28 13:10:37;;;;;;;18.63;9.52;;;;;;;1.21;70.79;100705.16;6308891;22;20034;-85